Time;durP1;ratioP1;P1;durP2;ratioP2;P2;SDS_P1;SDS_P2;PMS_P1;PMS_P2;Temp;Humidity;BMP_temperature;BMP_pressure;BME280_temperature;BME280_humidity;BME280_pressure;Samples;Min_cycle;Max_cycle;Signal;HPM_P1;HPM_P2
2022/08/14 00:01:47;;;;;;;9.20;8.30;;;;;;;21.92;69.38;100207.29;106228;1271;25204;-76
2022/08/14 00:04:22;;;;;;;8.00;7.20;;;;;;;21.92;69.43;100201.02;106355;1271;22550;-75
2022/08/14 00:07:08;;;;;;;8.70;7.90;;;;;;;21.89;69.55;100201.89;106362;1271;22581;-75
2022/08/14 00:09:35;;;;;;;8.60;7.60;;;;;;;21.87;69.54;100198.99;106284;1271;22529;-76
2022/08/14 00:12:25;;;;;;;7.80;6.70;;;;;;;21.87;69.54;100194.13;106303;1271;22576;-76
2022/08/14 00:15:23;;;;;;;8.10;7.30;;;;;;;21.86;69.60;100187.73;106178;1271;24302;-74
2022/08/14 00:17:50;;;;;;;7.90;7.20;;;;;;;21.88;69.68;100189.07;106356;1271;23591;-75
2022/08/14 00:20:25;;;;;;;8.80;7.80;;;;;;;21.88;69.50;100184.95;106359;1271;22535;-74
2022/08/14 00:23:05;;;;;;;10.30;7.30;;;;;;;21.86;69.66;100179.53;106386;1269;22557;-76
2022/08/14 00:25:41;;;;;;;8.10;7.00;;;;;;;21.81;69.52;100175.34;105987;1275;25287;-76
2022/08/14 00:28:11;;;;;;;7.10;6.00;;;;;;;21.80;69.47;100173.08;105653;1274;22547;-76
2022/08/14 00:30:42;;;;;;;11.60;7.10;;;;;;;21.79;69.59;100170.08;105870;1275;22572;-73
2022/08/14 00:33:09;;;;;;;7.50;6.80;;;;;;;21.80;69.51;100171.66;106002;1275;26648;-75
2022/08/14 00:35:42;;;;;;;8.40;7.00;;;;;;;21.79;69.41;100167.21;105930;1275;22754;-75
2022/08/14 00:38:29;;;;;;;10.00;6.70;;;;;;;21.76;69.16;100168.06;105645;1274;25332;-76
2022/08/14 00:41:01;;;;;;;7.30;6.60;;;;;;;21.72;69.13;100168.45;105917;1274;25408;-76
2022/08/14 00:43:28;;;;;;;7.70;7.00;;;;;;;21.70;69.07;100163.00;105940;1271;25222;-75
2022/08/14 00:46:10;;;;;;;7.90;6.90;;;;;;;21.66;69.09;100162.52;106200;1272;22550;-76
2022/08/14 00:48:57;;;;;;;7.30;6.40;;;;;;;21.65;69.11;100160.11;106240;1274;24240;-77
2022/08/14 00:51:25;;;;;;;6.60;5.90;;;;;;;21.63;69.15;100156.80;106052;1274;25464;-76
2022/08/14 00:54:07;;;;;;;6.70;6.10;;;;;;;21.62;68.95;100156.34;106029;1274;22580;-76
2022/08/14 00:56:49;;;;;;;7.50;6.80;;;;;;;21.60;69.02;100160.43;106065;1274;26516;-77
2022/08/14 00:59:21;;;;;;;11.40;7.00;;;;;;;21.59;68.92;100156.69;105980;1275;22662;-76
2022/08/14 01:01:52;;;;;;;7.00;6.20;;;;;;;21.58;68.76;100152.63;106177;1274;25291;-76
2022/08/14 01:04:22;;;;;;;7.20;6.10;;;;;;;21.55;68.58;100150.48;105782;1277;24388;-76
2022/08/14 01:07:09;;;;;;;7.10;6.10;;;;;;;21.50;68.66;100146.98;105975;1275;22797;-79
2022/08/14 01:09:40;;;;;;;9.50;6.30;;;;;;;21.51;68.64;100154.09;105954;1277;22591;-75
2022/08/14 01:12:08;;;;;;;7.50;5.70;;;;;;;21.52;68.79;100155.45;106005;1277;24588;-76
2022/08/14 01:14:36;;;;;;;7.50;5.80;;;;;;;21.54;68.64;100149.44;105924;1276;22760;-76
2022/08/14 01:17:06;;;;;;;7.90;6.20;;;;;;;21.55;68.47;100144.57;106068;1274;24385;-78
2022/08/14 01:22:20;;;;;;;;;;;;;;;21.51;68.36;100139.91;106073;1277;22520;-75
2022/08/14 01:24:52;;;;;;;9.70;5.80;;;;;;;21.47;68.24;100141.64;105774;1277;24593;-83
2022/08/14 01:27:22;;;;;;;8.00;5.80;;;;;;;21.46;68.35;100149.03;106133;1275;22557;-72
2022/08/14 01:29:55;;;;;;;7.80;5.60;;;;;;;21.43;68.51;100145.07;106244;1271;22684;-73
2022/08/14 01:32:32;;;;;;;7.80;5.20;;;;;;;21.42;68.34;100144.05;106394;1271;22553;-75
2022/08/14 01:35:06;;;;;;;7.30;5.80;;;;;;;21.43;68.35;100136.66;106564;1271;22635;-75
2022/08/14 01:37:54;;;;;;;9.70;5.60;;;;;;;21.45;68.21;100134.42;106362;1271;26624;-78
2022/08/14 01:40:27;;;;;;;7.20;6.10;;;;;;;21.44;68.48;100132.14;106362;1271;22544;-75
2022/08/14 01:43:16;;;;;;;7.60;5.80;;;;;;;21.44;68.27;100135.20;106398;1271;22610;-77
2022/08/14 01:45:50;;;;;;;6.60;5.40;;;;;;;21.39;67.94;100142.77;105823;1277;22558;-77
2022/08/14 01:48:33;;;;;;;8.70;6.10;;;;;;;21.28;67.79;100147.55;105917;1276;22528;-77
2022/08/14 01:51:05;;;;;;;5.90;5.30;;;;;;;21.25;67.98;100146.63;105937;1276;22702;-75
2022/08/14 01:53:47;;;;;;;7.10;5.30;;;;;;;21.26;68.05;100151.38;105743;1277;22612;-75
2022/08/14 01:56:35;;;;;;;5.40;4.90;;;;;;;21.25;67.88;100158.30;105800;1276;22762;-76
2022/08/14 01:59:08;;;;;;;8.80;5.20;;;;;;;21.27;67.98;100155.13;105987;1277;22624;-75
2022/08/14 02:01:50;;;;;;;9.40;5.90;;;;;;;21.28;67.84;100156.30;105967;1276;22496;-75
2022/08/14 02:04:31;;;;;;;7.70;4.90;;;;;;;21.29;67.79;100156.80;106067;1271;24512;-76
2022/08/14 02:07:19;;;;;;;6.20;5.20;;;;;;;21.29;67.76;100159.47;106334;1271;24418;-77
2022/08/14 02:10:07;;;;;;;6.90;5.70;;;;;;;21.28;67.82;100155.39;106430;1271;24175;-73
2022/08/14 02:12:41;;;;;;;8.60;5.40;;;;;;;21.27;67.52;100151.52;106429;1271;25236;-77
2022/08/14 02:15:09;;;;;;;5.80;5.30;;;;;;;21.25;67.64;100159.36;106379;1271;22547;-77
2022/08/14 02:17:36;;;;;;;6.70;5.50;;;;;;;21.25;67.57;100159.39;106223;1271;22851;-72
2022/08/14 02:20:07;;;;;;;6.90;5.00;;;;;;;21.23;67.46;100155.02;106307;1270;24498;-75
2022/08/14 02:22:34;;;;;;;6.70;5.40;;;;;;;21.19;67.43;100153.46;106217;1271;25518;-72
2022/08/14 02:25:14;;;;;;;5.30;4.80;;;;;;;21.16;67.43;100148.22;106406;1271;25171;-72
2022/08/14 02:27:44;;;;;;;5.30;4.90;;;;;;;21.15;67.67;100149.16;106160;1271;25242;-77
2022/08/14 02:30:32;;;;;;;8.40;5.60;;;;;;;21.16;67.65;100147.19;106203;1271;23081;-81
2022/08/14 02:33:01;;;;;;;5.90;5.30;;;;;;;21.16;67.68;100142.90;106410;1271;22560;-76
2022/08/14 02:35:27;;;;;;;8.10;5.30;;;;;;;21.16;67.66;100138.02;106416;1271;22592;-75
2022/08/14 02:37:59;;;;;;;7.00;5.50;;;;;;;21.14;67.52;100135.64;106320;1271;22541;-76
2022/08/14 02:40:31;;;;;;;8.20;5.10;;;;;;;21.09;67.55;100133.77;106346;1271;22541;-77
2022/08/14 02:43:01;;;;;;;7.40;5.40;;;;;;;21.02;67.65;100133.28;106439;1271;22996;-74
2022/08/14 02:45:32;;;;;;;7.00;5.40;;;;;;;21.00;67.92;100130.14;106343;1271;25359;-75
2022/08/14 02:48:10;;;;;;;7.50;5.30;;;;;;;21.00;67.95;100126.40;106306;1271;22535;-74
2022/08/14 02:50:58;;;;;;;6.10;5.40;;;;;;;21.00;68.11;100120.50;106218;1271;23429;-76
2022/08/14 02:53:28;;;;;;;6.60;4.90;;;;;;;20.99;68.10;100116.83;106320;1271;22525;-74
2022/08/14 02:55:57;;;;;;;7.60;5.70;;;;;;;20.99;68.10;100119.12;106044;1274;22544;-73
2022/08/14 02:58:39;;;;;;;5.90;5.30;;;;;;;20.98;68.27;100122.22;105959;1274;22695;-75
2022/08/14 03:01:09;;;;;;;7.50;5.10;;;;;;;20.95;68.44;100119.34;105953;1274;25710;-74
2022/08/14 03:03:37;;;;;;;6.40;5.30;;;;;;;20.93;68.42;100123.92;105816;1275;25403;-74
2022/08/14 03:06:06;;;;;;;6.80;5.00;;;;;;;20.91;68.45;100125.09;105879;1274;22556;-74
2022/08/14 03:08:36;;;;;;;13.20;5.10;;;;;;;20.89;68.35;100126.95;106035;1274;25295;-74
2022/08/14 03:11:06;;;;;;;6.90;4.40;;;;;;;20.90;68.39;100123.88;105949;1274;23121;-76
2022/08/14 03:13:42;;;;;;;7.20;5.00;;;;;;;20.90;68.30;100114.92;105971;1271;22561;-76
2022/08/14 03:16:14;;;;;;;7.40;5.10;;;;;;;20.91;68.29;100114.34;106259;1270;24492;-74
2022/08/14 03:18:57;;;;;;;6.20;5.20;;;;;;;20.90;68.14;100114.02;106279;1271;22563;-74
2022/08/14 03:21:26;;;;;;;7.30;5.00;;;;;;;20.89;68.23;100107.45;106281;1271;22554;-75
2022/08/14 03:24:27;;;;;;;7.00;6.30;;;;;;;20.86;68.24;100106.71;106305;1271;22567;-75
2022/08/14 03:26:55;;;;;;;6.80;5.00;;;;;;;20.81;68.28;100099.15;106359;1271;22617;-76
2022/08/14 03:29:24;;;;;;;5.90;4.50;;;;;;;20.82;68.26;100095.02;106375;1271;22608;-76
2022/08/14 03:31:52;;;;;;;5.40;4.70;;;;;;;20.82;68.51;100097.15;106308;1271;25272;-75
2022/08/14 03:34:23;;;;;;;9.60;4.50;;;;;;;20.84;68.36;100097.94;106073;1271;22678;-74
2022/08/14 03:37:10;;;;;;;7.40;4.60;;;;;;;20.86;68.35;100100.17;106370;1271;23119;-75
2022/08/14 03:39:57;;;;;;;7.70;4.30;;;;;;;20.87;68.37;100099.00;106311;1271;22539;-74
2022/08/14 03:42:26;;;;;;;8.60;4.60;;;;;;;20.86;68.43;100097.77;106367;1269;22540;-74
2022/08/14 03:45:05;;;;;;;6.50;4.30;;;;;;;20.86;68.49;100091.88;106358;1270;22525;-76
2022/08/14 03:47:52;;;;;;;4.90;4.10;;;;;;;20.86;68.40;100094.24;106276;1271;25133;-76
2022/08/14 03:50:27;;;;;;;5.30;4.80;;;;;;;20.86;68.50;100098.73;106324;1271;22548;-76
2022/08/14 03:53:00;;;;;;;8.80;4.60;;;;;;;20.84;68.59;100100.42;106329;1271;22856;-75
2022/08/14 03:55:28;;;;;;;8.60;4.50;;;;;;;20.83;68.53;100094.03;106331;1271;25290;-75
2022/08/14 03:57:57;;;;;;;9.10;4.70;;;;;;;20.85;68.61;100093.59;106322;1271;22718;-74
2022/08/14 04:00:28;;;;;;;6.70;4.40;;;;;;;20.85;68.62;100091.59;106232;1271;22598;-77
2022/08/14 04:03:10;;;;;;;6.00;4.80;;;;;;;20.85;68.71;100089.08;106119;1271;22986;-74
2022/08/14 04:05:42;;;;;;;7.10;4.60;;;;;;;20.86;68.57;100093.69;106146;1271;22546;-75
2022/08/14 04:08:16;;;;;;;6.20;4.40;;;;;;;20.88;68.75;100093.02;106427;1271;22537;-76
2022/08/14 04:10:58;;;;;;;5.10;4.60;;;;;;;20.89;68.59;100091.39;106192;1271;23949;-76
2022/08/14 04:13:28;;;;;;;6.70;4.80;;;;;;;20.91;68.70;100092.35;106300;1271;22688;-76
2022/08/14 04:16:01;;;;;;;6.50;4.60;;;;;;;20.95;68.72;100095.58;106257;1271;24239;-75
2022/08/14 04:18:41;;;;;;;6.20;4.50;;;;;;;20.99;68.86;100100.30;106131;1271;22527;-76
2022/08/14 04:21:09;;;;;;;7.00;4.60;;;;;;;21.04;68.84;100102.91;106194;1274;22568;-74
2022/08/14 04:23:37;;;;;;;6.90;4.60;;;;;;;21.08;69.02;100106.98;106022;1274;25312;-75
2022/08/14 04:26:07;;;;;;;6.00;4.70;;;;;;;21.11;68.92;100104.12;105978;1274;25220;-75
2022/08/14 04:28:53;;;;;;;7.80;5.10;;;;;;;21.14;68.85;100101.45;105612;1275;22535;-76
2022/08/14 04:31:40;;;;;;;8.20;4.90;;;;;;;21.13;68.78;100100.58;105979;1274;25358;-76
2022/08/14 04:34:26;;;;;;;5.70;4.60;;;;;;;21.15;68.77;100103.31;106067;1274;22607;-76
2022/08/14 04:45:22;;;;;;;9.10;4.60;;;;;;;21.26;68.68;100121.66;106396;1271;24256;-76
2022/08/14 04:50:45;;;;;;;6.10;4.30;;;;;;;21.26;68.65;100124.77;106139;1271;25232;-77
2022/08/14 04:53:22;;;;;;;10.60;4.80;;;;;;;21.25;68.62;100125.15;106258;1271;23768;-76
2022/08/14 04:56:00;;;;;;;5.60;4.50;;;;;;;21.25;68.60;100120.48;105720;1276;22521;-78
2022/08/14 04:58:31;;;;;;;5.20;4.70;;;;;;;21.30;68.61;100119.32;106006;1277;22563;-75
2022/08/14 05:01:03;;;;;;;6.90;4.80;;;;;;;21.35;68.69;100121.02;105491;1280;22548;-77
2022/08/14 05:03:32;;;;;;;7.20;5.30;;;;;;;21.33;68.72;100111.48;105513;1279;22536;-75
2022/08/14 05:06:07;;;;;;;6.10;5.10;;;;;;;21.39;68.66;100110.00;105553;1279;23227;-74
2022/08/14 05:08:54;;;;;;;6.80;5.00;;;;;;;21.40;68.59;100103.86;105463;1279;22527;-75
2022/08/14 05:11:26;;;;;;;6.40;5.20;;;;;;;21.42;68.58;100103.94;105702;1279;22528;-76
2022/08/14 05:13:55;;;;;;;6.30;5.00;;;;;;;21.42;68.62;100104.66;105552;1274;22685;-75
2022/08/14 05:16:42;;;;;;;7.60;5.50;;;;;;;21.43;68.69;100109.10;106053;1274;24250;-75
2022/08/14 05:19:13;;;;;;;6.60;4.80;;;;;;;21.42;68.66;100113.60;106210;1271;22751;-74
2022/08/14 05:21:57;;;;;;;6.00;4.80;;;;;;;21.46;68.98;100117.13;106293;1271;25357;-75
2022/08/14 05:24:46;;;;;;;7.20;5.40;;;;;;;21.50;69.02;100115.61;106268;1271;22541;-74
2022/08/14 05:27:19;;;;;;;7.50;5.40;;;;;;;21.53;68.98;100111.55;106349;1271;22702;-76
2022/08/14 05:29:54;;;;;;;8.00;5.50;;;;;;;21.57;68.90;100112.22;106231;1271;22615;-75
2022/08/14 05:32:24;;;;;;;7.60;5.80;;;;;;;21.59;68.95;100109.42;106374;1271;22641;-76
2022/08/14 05:35:02;;;;;;;6.60;5.80;;;;;;;21.64;69.00;100110.54;106273;1271;25295;-77
2022/08/14 05:37:29;;;;;;;8.60;5.40;;;;;;;21.69;69.07;100108.95;106410;1271;26622;-75
2022/08/14 05:39:57;;;;;;;10.00;5.80;;;;;;;21.76;69.00;100106.42;106236;1271;25306;-76
2022/08/14 05:42:26;;;;;;;8.10;6.50;;;;;;;21.82;69.06;100101.94;106364;1271;22525;-76
2022/08/14 05:44:58;;;;;;;6.90;5.80;;;;;;;21.85;69.01;100106.80;106526;1271;22471;-76
2022/08/14 05:47:25;;;;;;;8.60;6.40;;;;;;;21.88;69.04;100105.37;106444;1271;24436;-75
2022/08/14 05:50:07;;;;;;;10.10;6.40;;;;;;;21.92;69.07;100106.02;106356;1271;22646;-75
2022/08/14 05:52:49;;;;;;;8.70;6.10;;;;;;;21.93;69.26;100103.95;106440;1271;22585;-76
2022/08/14 05:55:17;;;;;;;6.70;5.90;;;;;;;21.92;69.05;100105.48;106441;1271;22566;-75
2022/08/14 05:57:53;;;;;;;8.10;6.60;;;;;;;21.93;69.25;100100.40;106456;1274;25234;-73
2022/08/14 06:00:28;;;;;;;7.40;6.50;;;;;;;21.92;69.29;100095.59;106327;1270;26563;-76
2022/08/14 06:03:05;;;;;;;7.80;7.00;;;;;;;21.91;69.48;100096.92;106341;1271;22524;-76
2022/08/14 06:05:33;;;;;;;7.70;7.00;;;;;;;21.89;69.49;100090.96;106421;1271;22522;-76
2022/08/14 06:08:04;;;;;;;10.00;6.90;;;;;;;21.88;69.58;100091.19;106443;1271;22544;-74
2022/08/14 06:10:49;;;;;;;7.90;6.60;;;;;;;21.88;69.78;100092.23;106235;1271;22535;-74
2022/08/14 06:13:17;;;;;;;10.00;7.90;;;;;;;21.88;69.89;100092.94;106365;1268;23634;-75
2022/08/14 06:15:46;;;;;;;8.30;7.50;;;;;;;21.91;69.99;100089.73;106348;1271;24244;-79
2022/08/14 06:18:14;;;;;;;8.70;7.50;;;;;;;21.93;70.10;100090.52;106380;1271;24371;-75
2022/08/14 06:20:43;;;;;;;9.40;8.10;;;;;;;21.94;70.30;100091.17;106423;1271;22532;-77
2022/08/14 06:23:12;;;;;;;8.10;7.30;;;;;;;21.96;70.22;100091.78;106427;1271;25356;-77
2022/08/14 06:25:41;;;;;;;9.80;7.20;;;;;;;22.02;70.55;100094.12;106487;1271;24297;-73
2022/08/14 06:28:21;;;;;;;8.20;7.40;;;;;;;22.07;70.18;100085.39;106420;1272;22553;-74
2022/08/14 06:30:54;;;;;;;12.30;8.20;;;;;;;22.12;70.25;100083.58;106364;1271;25293;-73
2022/08/14 06:33:21;;;;;;;8.90;8.00;;;;;;;22.19;70.39;100084.98;106290;1271;22838;-78
2022/08/14 06:36:08;;;;;;;9.20;8.20;;;;;;;22.29;70.64;100089.38;106405;1272;22721;-73
2022/08/14 06:38:36;;;;;;;12.70;8.90;;;;;;;22.29;70.19;100090.66;106574;1271;25417;-73
2022/08/14 06:41:03;;;;;;;9.20;7.50;;;;;;;22.30;70.16;100089.18;106612;1271;24081;-73
2022/08/14 06:43:36;;;;;;;8.50;7.70;;;;;;;22.31;70.13;100097.30;106374;1271;25245;-77
2022/08/14 06:46:10;;;;;;;9.10;8.10;;;;;;;22.28;70.07;100095.74;106450;1271;22633;-76
2022/08/14 06:48:52;;;;;;;10.50;8.00;;;;;;;22.31;70.29;100092.33;106482;1271;25238;-74
2022/08/14 06:51:20;;;;;;;9.10;8.20;;;;;;;22.36;70.25;100089.86;106311;1271;23015;-76
2022/08/14 06:53:47;;;;;;;9.50;7.70;;;;;;;22.39;70.34;100092.33;106419;1272;23911;-73
2022/08/14 06:56:15;;;;;;;9.10;7.90;;;;;;;22.43;70.54;100094.25;106324;1271;22525;-79
2022/08/14 06:58:42;;;;;;;8.70;8.00;;;;;;;22.52;70.52;100096.02;106659;1271;22543;-76
2022/08/14 07:06:53;;;;;;;9.60;8.70;;;;;;;22.91;70.18;100091.63;106303;1271;24699;-76
2022/08/14 07:09:26;;;;;;;12.60;8.70;;;;;;;22.98;70.01;100092.75;106389;1271;22553;-77
2022/08/14 07:12:09;;;;;;;13.00;8.10;;;;;;;23.06;69.95;100091.70;106442;1273;25379;-75
2022/08/14 07:14:56;;;;;;;11.00;9.90;;;;;;;23.15;69.80;100088.42;106454;1271;25340;-75
2022/08/14 07:17:27;;;;;;;10.40;9.50;;;;;;;23.23;69.66;100089.43;106433;1271;22529;-74
2022/08/14 07:19:57;;;;;;;10.80;9.70;;;;;;;23.33;69.33;100088.66;106354;1271;22548;-75
2022/08/14 07:22:24;;;;;;;10.40;9.00;;;;;;;23.41;69.38;100094.42;106413;1271;22700;-76
2022/08/14 07:25:11;;;;;;;15.20;9.40;;;;;;;23.50;69.43;100094.92;106420;1271;24293;-75
2022/08/14 07:27:39;;;;;;;9.80;8.90;;;;;;;23.57;69.21;100096.57;106367;1271;25244;-77
2022/08/14 07:30:09;;;;;;;10.00;9.00;;;;;;;23.64;69.06;100095.54;106329;1271;22528;-76
2022/08/14 07:32:56;;;;;;;10.50;8.50;;;;;;;23.71;68.91;100092.53;106248;1271;22537;-74
2022/08/14 07:35:23;;;;;;;13.10;9.20;;;;;;;23.78;68.63;100089.26;106263;1271;25637;-75
2022/08/14 07:38:06;;;;;;;9.80;8.90;;;;;;;23.84;68.57;100087.92;106267;1270;25376;-78
2022/08/14 07:40:34;;;;;;;10.80;9.70;;;;;;;23.89;68.42;100085.21;106360;1271;22541;-76
2022/08/14 07:43:01;;;;;;;10.70;9.70;;;;;;;23.91;68.09;100084.73;106105;1271;24054;-76
2022/08/14 07:45:41;;;;;;;11.20;10.00;;;;;;;23.93;68.48;100080.82;106308;1271;22524;-72
2022/08/14 07:48:08;;;;;;;10.80;9.70;;;;;;;23.97;68.41;100082.19;106313;1271;25283;-75
2022/08/14 07:50:42;;;;;;;10.10;9.00;;;;;;;24.01;68.23;100082.02;106405;1271;22531;-75
2022/08/14 07:53:13;;;;;;;11.70;10.60;;;;;;;24.09;67.96;100078.60;106228;1271;22638;-76
2022/08/14 07:55:41;;;;;;;10.00;9.00;;;;;;;24.21;68.07;100080.85;106172;1271;22656;-73
2022/08/14 07:58:09;;;;;;;10.20;9.10;;;;;;;24.30;67.96;100076.79;106243;1271;22543;-73
2022/08/14 08:00:57;;;;;;;12.40;9.50;;;;;;;24.38;67.48;100069.59;106280;1271;24705;-73
2022/08/14 08:03:26;;;;;;;10.00;9.00;;;;;;;24.43;67.66;100063.64;106374;1271;22584;-77
2022/08/14 08:05:56;;;;;;;10.00;9.20;;;;;;;24.52;67.54;100065.92;106351;1271;24209;-75
2022/08/14 08:08:24;;;;;;;10.10;8.90;;;;;;;24.61;67.45;100068.44;106312;1269;25313;-76
2022/08/14 08:10:55;;;;;;;9.90;9.00;;;;;;;24.70;67.12;100069.41;106290;1272;24418;-75
2022/08/14 08:13:31;;;;;;;12.40;9.30;;;;;;;24.79;66.89;100070.02;106168;1271;22654;-75
2022/08/14 08:16:00;;;;;;;13.20;9.60;;;;;;;24.79;66.58;100068.60;106329;1271;22647;-76
2022/08/14 08:18:27;;;;;;;10.40;9.50;;;;;;;24.81;66.49;100072.21;106179;1271;24513;-76
2022/08/14 08:20:57;;;;;;;10.90;9.60;;;;;;;24.80;66.38;100067.47;106326;1269;24229;-75
2022/08/14 08:23:28;;;;;;;11.10;9.60;;;;;;;24.97;66.44;100070.56;106087;1271;22525;-84
2022/08/14 08:26:05;;;;;;;11.30;9.80;;;;;;;25.10;66.16;100072.45;106205;1271;22601;-76
2022/08/14 08:28:32;;;;;;;11.00;9.70;;;;;;;25.15;66.08;100069.92;106180;1271;22693;-76
2022/08/14 08:31:02;;;;;;;13.30;10.00;;;;;;;25.20;65.83;100066.86;106238;1271;22580;-74
2022/08/14 08:33:32;;;;;;;12.20;9.20;;;;;;;25.26;65.61;100070.35;106208;1271;24221;-73
2022/08/14 08:36:06;;;;;;;10.70;9.60;;;;;;;25.38;65.18;100067.65;106152;1271;22536;-76
2022/08/14 08:38:39;;;;;;;10.30;8.90;;;;;;;25.60;65.34;100066.88;106212;1271;22554;-74
2022/08/14 08:41:27;;;;;;;10.40;8.70;;;;;;;25.79;65.01;100073.57;106356;1271;22529;-74
2022/08/14 08:44:04;;;;;;;10.50;9.50;;;;;;;25.81;64.55;100067.97;106256;1271;22528;-77
2022/08/14 08:46:58;;;;;;;10.30;9.10;;;;;;;25.84;63.96;100071.91;106374;1271;25503;-80
2022/08/14 08:49:41;;;;;;;10.00;9.00;;;;;;;25.81;63.75;100073.38;106314;1271;24377;-75
2022/08/14 08:52:27;;;;;;;12.70;10.10;;;;;;;25.80;63.64;100071.15;106322;1271;24489;-76
2022/08/14 08:54:59;;;;;;;11.10;10.10;;;;;;;25.88;63.67;100066.33;106227;1271;24408;-76
2022/08/14 08:57:34;;;;;;;13.10;10.50;;;;;;;25.93;63.55;100066.35;106428;1271;22537;-76
2022/08/14 09:00:13;;;;;;;11.30;9.80;;;;;;;26.05;63.69;100062.90;106324;1271;22552;-78
2022/08/14 09:02:56;;;;;;;13.10;9.50;;;;;;;26.24;63.25;100063.88;106338;1271;22627;-76
2022/08/14 09:05:24;;;;;;;9.70;8.70;;;;;;;26.31;62.93;100062.13;106189;1270;25432;-76
2022/08/14 09:07:52;;;;;;;10.50;9.20;;;;;;;26.46;62.80;100058.72;106273;1271;23913;-75
2022/08/14 09:10:22;;;;;;;10.70;9.10;;;;;;;26.59;62.59;100059.48;106258;1271;22701;-75
2022/08/14 09:12:54;;;;;;;10.50;9.50;;;;;;;26.59;62.24;100061.13;106420;1271;22543;-76
2022/08/14 09:15:21;;;;;;;10.40;9.40;;;;;;;26.51;61.98;100059.63;106285;1271;22554;-75
2022/08/14 09:17:50;;;;;;;10.70;9.60;;;;;;;26.44;61.86;100059.07;106270;1271;22547;-76
2022/08/14 09:20:18;;;;;;;10.60;9.60;;;;;;;26.42;61.75;100063.03;106263;1271;25620;-77
2022/08/14 09:22:57;;;;;;;9.70;8.80;;;;;;;26.38;61.86;100056.52;106266;1271;22537;-75
2022/08/14 09:25:24;;;;;;;11.90;10.50;;;;;;;26.33;61.84;100057.05;106321;1270;24328;-75
2022/08/14 09:28:12;;;;;;;10.10;9.20;;;;;;;26.27;61.97;100052.45;106228;1271;25433;-74
2022/08/14 09:30:44;;;;;;;10.40;9.50;;;;;;;26.23;62.15;100053.92;106322;1271;22542;-76
2022/08/14 09:33:40;;;;;;;10.60;9.50;;;;;;;26.21;62.43;100052.20;106246;1271;22546;-75
2022/08/14 09:36:38;;;;;;;12.20;9.30;;;;;;;26.14;62.55;100054.05;106063;1271;22542;-77
2022/08/14 09:39:21;;;;;;;12.00;9.80;;;;;;;26.07;62.42;100051.15;106273;1271;25232;-76
2022/08/14 09:42:26;;;;;;;10.50;9.50;;;;;;;25.99;62.45;100048.56;106194;1271;22528;-73
2022/08/14 09:45:19;;;;;;;11.50;8.90;;;;;;;25.96;62.56;100046.23;106230;1271;22525;-77
2022/08/14 09:47:49;;;;;;;10.50;9.00;;;;;;;25.92;62.69;100049.61;106226;1271;22561;-80
2022/08/14 09:50:24;;;;;;;11.00;9.70;;;;;;;25.91;62.76;100047.20;106439;1269;26488;-77
2022/08/14 09:53:05;;;;;;;10.60;9.70;;;;;;;25.94;63.02;100047.89;106354;1271;25318;-81
2022/08/14 09:55:44;;;;;;;11.60;9.30;;;;;;;25.94;62.91;100042.61;106419;1270;25376;-76
2022/08/14 09:58:17;;;;;;;10.40;9.20;;;;;;;25.96;62.90;100041.91;106385;1271;22651;-78
2022/08/14 10:00:53;;;;;;;11.10;9.10;;;;;;;26.00;62.67;100035.33;106376;1271;25302;-77
2022/08/14 10:03:36;;;;;;;11.00;9.20;;;;;;;26.02;62.75;100043.59;106381;1271;22706;-76
2022/08/14 10:06:08;;;;;;;11.10;9.70;;;;;;;26.12;62.69;100041.02;106346;1271;25249;-76
2022/08/14 10:08:42;;;;;;;12.00;9.40;;;;;;;26.21;62.54;100037.60;106386;1271;22656;-76
2022/08/14 10:11:18;;;;;;;11.20;9.90;;;;;;;26.24;62.37;100030.70;106290;1271;22528;-75
2022/08/14 10:13:53;;;;;;;11.10;9.20;;;;;;;26.45;62.20;100028.70;106099;1271;22525;-76
2022/08/14 10:16:29;;;;;;;11.60;9.70;;;;;;;26.59;61.75;100026.13;106357;1271;22613;-76
2022/08/14 10:19:07;;;;;;;10.30;9.40;;;;;;;26.73;61.53;100022.98;106340;1271;22525;-79
2022/08/14 10:21:42;;;;;;;11.40;9.30;;;;;;;26.78;60.83;100022.36;106422;1271;24230;-80
2022/08/14 10:24:32;;;;;;;10.30;9.20;;;;;;;26.82;60.84;100020.77;106325;1271;22554;-80
2022/08/14 10:27:04;;;;;;;11.80;10.20;;;;;;;26.87;60.84;100019.76;106310;1271;26497;-78
2022/08/14 10:29:38;;;;;;;10.50;9.60;;;;;;;26.83;60.41;100015.81;106398;1271;24418;-78
2022/08/14 10:32:09;;;;;;;11.50;10.30;;;;;;;26.79;60.29;100015.22;106337;1271;23977;-81
2022/08/14 10:35:07;;;;;;;10.60;9.60;;;;;;;26.79;60.52;100018.29;106394;1271;25375;-75
2022/08/14 10:37:45;;;;;;;11.40;10.00;;;;;;;26.96;60.45;100013.08;106383;1270;25302;-77
2022/08/14 10:40:14;;;;;;;10.70;9.70;;;;;;;27.21;60.21;100019.36;106082;1271;22536;-76
2022/08/14 10:43:02;;;;;;;11.20;10.20;;;;;;;27.45;59.26;100016.98;106422;1271;22548;-78
2022/08/14 10:45:33;;;;;;;14.30;9.60;;;;;;;27.58;58.91;100019.25;106418;1271;22550;-79
2022/08/14 10:48:16;;;;;;;10.80;9.90;;;;;;;27.79;58.21;100020.80;106443;1271;25238;-77
2022/08/14 10:51:03;;;;;;;10.30;9.10;;;;;;;28.04;58.15;100015.86;106373;1271;22559;-76
2022/08/14 10:53:36;;;;;;;10.20;9.20;;;;;;;28.37;57.98;100008.60;106285;1270;25235;-77
2022/08/14 10:56:09;;;;;;;10.80;9.30;;;;;;;28.60;57.11;100003.49;106056;1269;25246;-75
2022/08/14 10:59:01;;;;;;;10.20;9.20;;;;;;;28.88;56.86;99999.13;106409;1271;22695;-76
2022/08/14 11:01:33;;;;;;;11.10;9.00;;;;;;;29.11;56.41;100000.48;106333;1271;22743;-75
2022/08/14 11:04:19;;;;;;;10.30;9.30;;;;;;;29.27;55.92;99999.34;106429;1269;25420;-75
2022/08/14 11:06:54;;;;;;;10.30;9.30;;;;;;;29.49;55.19;99993.45;106453;1271;25241;-75
2022/08/14 11:09:22;;;;;;;10.50;9.50;;;;;;;29.61;54.67;99991.79;106403;1271;25410;-76
2022/08/14 11:11:56;;;;;;;9.80;8.90;;;;;;;29.76;54.19;99987.86;105242;1271;1304912;-73
2022/08/14 11:14:51;;;;;;;9.90;8.90;;;;;;;29.89;53.81;99986.23;106375;1271;22706;-78
2022/08/14 11:17:28;;;;;;;10.60;8.80;;;;;;;30.06;53.39;99980.77;106320;1271;25408;-75
2022/08/14 11:20:00;;;;;;;9.80;8.80;;;;;;;30.29;53.36;99984.71;106512;1271;25368;-77
2022/08/14 11:22:29;;;;;;;10.30;9.30;;;;;;;30.41;52.89;99983.03;106304;1270;22525;-76
2022/08/14 11:25:19;;;;;;;9.50;8.40;;;;;;;30.35;52.42;99978.50;106251;1271;24262;-77
2022/08/14 11:27:47;;;;;;;10.40;9.20;;;;;;;30.02;51.93;99980.02;106340;1271;22639;-75
2022/08/14 11:30:18;;;;;;;10.30;9.00;;;;;;;29.86;52.18;99978.32;106255;1271;22523;-78
2022/08/14 11:33:06;;;;;;;9.50;8.70;;;;;;;30.03;52.42;99979.25;106245;1271;24273;-77
2022/08/14 11:35:36;;;;;;;10.10;9.10;;;;;;;30.25;52.41;99977.13;106308;1271;22662;-76
2022/08/14 11:38:14;;;;;;;10.60;9.20;;;;;;;30.17;51.97;99972.98;106283;1271;22521;-77
2022/08/14 11:40:45;;;;;;;11.20;10.10;;;;;;;29.96;51.61;99969.54;106378;1271;23194;-77
2022/08/14 11:43:14;;;;;;;12.10;9.90;;;;;;;29.91;51.73;99970.94;106311;1271;22546;-77
2022/08/14 11:45:47;;;;;;;10.80;9.70;;;;;;;29.94;51.83;99971.95;106367;1271;22679;-82
2022/08/14 11:48:20;;;;;;;11.00;9.70;;;;;;;29.91;51.69;99977.16;106269;1271;22550;-76
2022/08/14 11:51:22;;;;;;;10.60;9.60;;;;;;;29.86;51.84;99977.06;106311;1271;25232;-76
2022/08/14 11:53:56;;;;;;;10.90;9.80;;;;;;;29.88;51.84;99980.84;106331;1271;22550;-76
2022/08/14 11:56:23;;;;;;;10.20;9.20;;;;;;;30.02;51.87;99979.50;106161;1271;22553;-78
2022/08/14 11:58:53;;;;;;;10.60;9.60;;;;;;;30.14;51.71;99975.23;106375;1271;22558;-77
2022/08/14 12:01:27;;;;;;;11.10;9.40;;;;;;;30.34;51.42;99974.39;106038;1275;22707;-79
2022/08/14 12:03:57;;;;;;;10.70;9.40;;;;;;;30.53;50.88;99971.63;106025;1274;25235;-77
2022/08/14 12:06:27;;;;;;;10.60;9.50;;;;;;;30.56;50.76;99969.70;105925;1274;22617;-76
2022/08/14 12:09:06;;;;;;;12.10;9.70;;;;;;;30.52;50.75;99966.80;105886;1274;25384;-78
2022/08/14 12:11:43;;;;;;;11.10;10.00;;;;;;;30.36;50.52;99962.06;105912;1275;25261;-77